Time;durP1;ratioP1;P1;durP2;ratioP2;P2;SDS_P1;SDS_P2;PMS_P1;PMS_P2;Temp;Humidity;BMP_temperature;BMP_pressure;BME280_temperature;BME280_humidity;BME280_pressure;Samples;Min_cycle;Max_cycle;Signal;HPM_P1;HPM_P2
2022/07/03 00:00:51;;;;;;;6.45;2.20;;;;;;;;;;6250822;23;20035;-83
2022/07/03 00:03:22;;;;;;;5.93;2.30;;;;;;;;;;6198362;23;20024;-82
2022/07/03 00:05:49;;;;;;;6.05;2.15;;;;;;;;;;6249443;23;20095;-83
2022/07/03 00:08:16;;;;;;;4.80;1.85;;;;;;;;;;6223887;23;20046;-82
2022/07/03 00:10:42;;;;;;;3.95;1.98;;;;;;;;;;6249182;23;20024;-84
2022/07/03 00:13:08;;;;;;;5.65;1.70;;;;;;;;;;6250497;23;20103;-84
2022/07/03 00:15:34;;;;;;;4.10;1.92;;;;;;;;;;6222117;23;20046;-84
2022/07/03 00:18:00;;;;;;;7.68;2.45;;;;;;;;;;6224718;23;20051;-83
2022/07/03 00:20:30;;;;;;;2.83;1.85;;;;;;;;;;6247637;23;20020;-83
2022/07/03 00:22:58;;;;;;;6.28;1.77;;;;;;;;;;6199452;23;20020;-84
2022/07/03 00:25:24;;;;;;;3.22;2.03;;;;;;;;;;6249979;23;20027;-83
2022/07/03 00:27:50;;;;;;;5.72;2.20;;;;;;;;;;6224612;23;20020;-84
2022/07/03 00:30:16;;;;;;;6.40;2.20;;;;;;;;;;6224253;23;20051;-85
2022/07/03 00:32:43;;;;;;;2.45;2.22;;;;;;;;;;6175478;23;20064;-86
2022/07/03 00:35:09;;;;;;;8.95;3.17;;;;;;;;;;6200374;23;20016;-84
2022/07/03 00:37:36;;;;;;;6.05;3.25;;;;;;;;;;6201230;23;20071;-84
2022/07/03 00:40:02;;;;;;;6.55;3.05;;;;;;;;;;6226564;23;20067;-83
2022/07/03 00:42:28;;;;;;;11.95;3.60;;;;;;;;;;6250026;23;20031;-84
2022/07/03 00:44:56;;;;;;;10.27;3.67;;;;;;;;;;6228062;23;20020;-84
2022/07/03 00:47:24;;;;;;;7.82;3.97;;;;;;;;;;6222912;23;20539;-84
2022/07/03 00:49:52;;;;;;;6.95;3.60;;;;;;;;;;6199694;23;20020;-86
2022/07/03 00:52:19;;;;;;;6.63;3.65;;;;;;;;;;6198737;23;20047;-87
2022/07/03 00:54:51;;;;;;;4.90;3.67;;;;;;;;;;6198433;23;20020;-83
2022/07/03 00:57:17;;;;;;;6.85;3.67;;;;;;;;;;6224336;23;20795;-89
2022/07/03 00:59:44;;;;;;;9.25;3.85;;;;;;;;;;6171870;23;20059;-84
2022/07/03 01:02:23;;;;;;;8.10;3.47;;;;;;;;;;6199879;23;20087;-87
2022/07/03 01:05:00;;;;;;;4.93;3.28;;;;;;;;;;6248463;23;20016;-83
2022/07/03 01:07:38;;;;;;;6.28;3.53;;;;;;;;;;6198503;23;20030;-83
2022/07/03 01:10:07;;;;;;;6.82;3.10;;;;;;;;;;6246698;23;20019;-84
2022/07/03 01:12:41;;;;;;;5.35;2.90;;;;;;;;;;6222936;23;20022;-86
2022/07/03 01:15:12;;;;;;;3.88;2.90;;;;;;;;;;6197428;23;20024;-84
2022/07/03 01:17:39;;;;;;;5.47;3.22;;;;;;;;;;6196764;23;20020;-84
2022/07/03 01:20:07;;;;;;;6.15;4.00;;;;;;;;;;6248357;23;20052;-84
2022/07/03 01:22:38;;;;;;;8.98;3.38;;;;;;;;;;6197746;23;20012;-83
2022/07/03 01:25:16;;;;;;;4.45;3.22;;;;;;;;;;6249551;23;20020;-82
2022/07/03 01:27:57;;;;;;;4.53;3.30;;;;;;;;;;6249611;23;20542;-85
2022/07/03 01:30:24;;;;;;;8.45;3.92;;;;;;;;;;6250484;23;20016;-83
2022/07/03 01:39:30;;;;;;;5.88;3.58;;;;;;;;;;6248390;23;20020;-83
2022/07/03 01:42:00;;;;;;;4.10;3.53;;;;;;;;;;6221007;23;20054;-83
2022/07/03 01:44:27;;;;;;;6.38;4.00;;;;;;;;;;6248491;23;20341;-83
2022/07/03 01:46:56;;;;;;;8.43;4.18;;;;;;;;;;6222276;23;20028;-82
2022/07/03 01:49:22;;;;;;;6.72;4.25;;;;;;;;;;6248670;23;20324;-82
2022/07/03 01:51:51;;;;;;;10.27;4.32;;;;;;;;;;6250594;23;20027;-86
2022/07/03 01:54:17;;;;;;;7.68;4.20;;;;;;;;;;6248533;23;20017;-83
2022/07/03 01:56:44;;;;;;;6.72;4.00;;;;;;;;;;6250905;23;20058;-84
2022/07/03 01:59:11;;;;;;;4.25;3.80;;;;;;;;;;6247482;23;20020;-86
2022/07/03 02:02:01;;;;;;;6.50;4.32;;;;;;;;;;6222982;23;20024;-83
2022/07/03 02:04:34;;;;;;;5.07;3.83;;;;;;;;;;6248051;23;20019;-86
2022/07/03 02:07:06;;;;;;;11.43;4.30;;;;;;;;;;6222638;23;20020;-83
2022/07/03 02:09:44;;;;;;;6.80;4.47;;;;;;;;;;6249647;23;20020;-85
2022/07/03 02:12:20;;;;;;;9.20;4.57;;;;;;;;;;6220690;23;20027;-83
2022/07/03 02:15:01;;;;;;;5.78;4.50;;;;;;;;;;6249291;23;20091;-83
2022/07/03 02:17:41;;;;;;;5.72;4.30;;;;;;;;;;6248521;23;20027;-86
2022/07/03 02:20:38;;;;;;;;;;;;;;;;;;;;;
2022/07/03 02:33:37;;;;;;;8.18;5.30;;;;;;;;;;6250486;23;20012;-83
2022/07/03 02:36:41;;;;;;;9.07;5.00;;;;;;;;;;6196089;23;20055;-84
2022/07/03 02:52:57;;;;;;;8.73;5.78;;;;;;;;;;6225061;23;20137;-86
2022/07/03 02:59:10;;;;;;;6.55;5.28;;;;;;;;;;6129362;23;20073;-83
2022/07/03 03:02:04;;;;;;;6.00;4.93;;;;;;;;;;6131146;23;20101;-84
2022/07/03 03:04:33;;;;;;;6.97;5.35;;;;;;;;;;6130954;23;20474;-83
2022/07/03 03:07:13;;;;;;;6.65;5.68;;;;;;;;;;6211804;23;20052;-87
2022/07/03 03:09:42;;;;;;;8.40;5.50;;;;;;;;;;6253088;23;20055;-83
2022/07/03 03:12:08;;;;;;;8.10;5.78;;;;;;;;;;6199129;23;20028;-86
2022/07/03 03:14:40;;;;;;;7.10;6.40;;;;;;;;;;6251990;23;20435;-85
2022/07/03 03:17:07;;;;;;;10.43;5.93;;;;;;;;;;6251600;23;20026;-85
2022/07/03 03:19:36;;;;;;;6.90;6.20;;;;;;;;;;6224818;23;20467;-84
2022/07/03 03:22:21;;;;;;;9.65;6.50;;;;;;;;;;6224793;23;20027;-82
2022/07/03 03:24:47;;;;;;;8.27;6.63;;;;;;;;;;6252068;23;20050;-84
2022/07/03 03:27:13;;;;;;;11.23;6.30;;;;;;;;;;6225015;23;20020;-86
2022/07/03 03:29:42;;;;;;;8.65;6.22;;;;;;;;;;6250286;23;20069;-84
2022/07/03 03:32:34;;;;;;;9.75;6.60;;;;;;;;;;6198298;23;20448;-86
2022/07/03 03:44:23;;;;;;;11.82;6.80;;;;;;;;;;6252136;22;20031;-86
2022/07/03 03:47:15;;;;;;;9.05;6.88;;;;;;;;;;6314142;22;20045;-85
2022/07/03 03:50:07;;;;;;;9.85;7.35;;;;;;;;;;6313959;22;20015;-87
2022/07/03 03:52:33;;;;;;;10.13;7.68;;;;;;;;;;6286168;22;20023;-86
2022/07/03 03:54:59;;;;;;;10.18;7.18;;;;;;;;;;6316288;22;20089;-84
2022/07/03 03:57:31;;;;;;;10.35;7.80;;;;;;;;;;6260995;22;20027;-84
2022/07/03 03:59:57;;;;;;;8.73;6.90;;;;;;;;;;6287092;22;20344;-86
2022/07/03 04:02:23;;;;;;;10.25;8.00;;;;;;;;;;6314215;22;20528;-85
2022/07/03 04:04:55;;;;;;;10.40;7.80;;;;;;;;;;6288668;22;20019;-84
2022/07/03 04:07:21;;;;;;;8.38;7.20;;;;;;;;;;6288125;22;20050;-83
2022/07/03 04:09:47;;;;;;;10.43;7.13;;;;;;;;;;6312577;22;20015;-83
2022/07/03 04:12:32;;;;;;;8.27;6.57;;;16.00;99.90;;;;;;6311439;22;20015;-85
2022/07/03 04:23:48;;;;;;;9.55;7.43;;;;;;;;;;6275712;22;20024;-82
2022/07/03 04:26:18;;;;;;;11.02;7.53;;;;;;;;;;6231503;22;20019;-87
2022/07/03 04:28:44;;;;;;;11.98;7.95;;;;;;;;;;6255744;22;20028;-82
2022/07/03 04:31:13;;;;;;;10.23;7.45;;;;;;;;;;6286369;22;20619;-84
2022/07/03 04:39:19;;;;;;;12.98;7.88;;;;;;;;;;6237036;22;20089;-83
2022/07/03 04:42:16;;;;;;;9.25;7.13;;;;;;;;;;6292216;22;20030;-84
2022/07/03 04:44:42;;;;;;;9.15;6.97;;;;;;;;;;6260524;22;20020;-84
2022/07/03 04:47:36;;;;;;;10.52;8.13;;;;;;;;;;6228042;22;20034;-83
2022/07/03 04:50:03;;;;;;;8.15;7.10;;;;;;;;;;6281721;22;20047;-83
2022/07/03 04:52:35;;;;;;;8.07;6.93;;;;;;;;;;6252418;22;20020;-84
2022/07/03 04:55:02;;;;;;;9.75;6.75;;;;;;;;;;6253855;22;20016;-84
2022/07/03 04:57:28;;;;;;;8.25;6.30;;;;;;;;;;6280305;22;20027;-82
2022/07/03 05:00:01;;;;;;;11.32;6.90;;;;;;;;;;6278416;22;20436;-85
2022/07/03 05:02:27;;;;;;;8.35;6.80;;;;;;;;;;6254240;22;20053;-85
2022/07/03 05:04:54;;;;;;;8.00;6.22;;;;;;;;;;6201735;22;20102;-87
2022/07/03 05:07:21;;;;;;;10.30;6.35;;;;;;;;;;6204062;22;20037;-86
2022/07/03 05:09:48;;;;;;;8.40;5.97;;;;;;;;;;6251671;22;20024;-86
2022/07/03 05:12:14;;;;;;;9.15;5.82;;;;;;;;;;6281453;22;20081;-82
2022/07/03 05:14:40;;;;;;;6.90;5.93;;;;;;;;;;6251637;22;20049;-83
2022/07/03 05:17:06;;;;;;;6.60;5.90;;;;;;;;;;6253206;22;20015;-82
2022/07/03 05:19:32;;;;;;;7.38;6.20;;;;;;;;;;6200541;22;20020;-84
2022/07/03 05:21:58;;;;;;;10.95;5.72;;;;;;;;;;6202455;22;20035;-82
2022/07/03 05:24:37;;;;;;;9.82;5.97;;;;;;;;;;6226989;22;20030;-83
2022/07/03 05:27:04;;;;;;;8.13;6.60;;;;;;;;;;6279338;22;20019;-84
2022/07/03 05:29:30;;;;;;;12.80;6.40;;;;;;;;;;6226583;22;20246;-86
2022/07/03 05:31:56;;;;;;;11.13;6.82;;;;;;;;;;6225685;22;20032;-84
2022/07/03 05:34:22;;;;;;;12.95;6.45;;;;;;;;;;6280715;22;20066;-85
2022/07/03 05:36:48;;;;;;;7.20;6.47;;;;;;;;;;6251453;22;20027;-83
2022/07/03 05:39:49;;;;;;;8.35;6.80;;;;;;;;;;6254578;22;20043;-85
2022/07/03 05:42:08;;;;;;;8.05;6.97;;;;;;;;;;6246914;22;20019;-84
2022/07/03 05:44:34;;;;;;;8.50;6.65;;;;;;;;;;6203073;22;20236;-86
2022/07/03 05:47:01;;;;;;;9.63;6.60;;;;;;;;;;6279784;22;20134;-87
2022/07/03 05:49:27;;;;;;;9.50;6.35;;;;;;;;;;6279569;22;20483;-87
2022/07/03 05:51:53;;;;;;;11.20;6.95;;;;;;;;;;6278722;22;20020;-87
2022/07/03 05:54:19;;;;;;;10.20;6.85;;;;;;;;;;6281124;22;20095;-83
2022/07/03 05:56:45;;;;;;;9.35;6.53;;;;;;;;;;6279098;22;20026;-82
2022/07/03 05:59:11;;;;;;;17.17;6.10;;;;;;;;;;6279909;22;20020;-85
2022/07/03 06:01:37;;;;;;;5.97;4.97;;;;;;;;;;6227177;22;20020;-86
2022/07/03 06:04:03;;;;;;;8.00;5.60;;;;;;;;;;6279122;22;20019;-82
2022/07/03 06:06:29;;;;;;;10.70;6.18;;;;;;;;;;6280023;22;20099;-86
2022/07/03 06:08:55;;;;;;;8.48;5.38;;;;;;;;;;6226099;22;20015;-86
2022/07/03 06:11:22;;;;;;;6.60;5.53;;;;;;;;;;6253344;22;20024;-84
2022/07/03 06:13:48;;;;;;;8.57;5.40;;;;;;;;;;6277299;22;20020;-85
2022/07/03 06:16:14;;;;;;;10.27;5.43;;;;;;;;;;6278825;22;20212;-85
2022/07/03 06:18:55;;;;;;;7.93;5.25;;;;;;;;;;6276047;22;20031;-87
2022/07/03 06:21:23;;;;;;;5.25;4.13;;;;;;;;;;6278510;22;20030;-83
2022/07/03 06:23:59;;;;;;;4.43;3.97;;;;;;;;;;6226534;22;20137;-81
2022/07/03 06:26:26;;;;;;;5.43;4.53;;;;;;;;;;6227512;22;20035;-84
2022/07/03 06:28:54;;;;;;;6.93;4.32;;;;;;;;;;6202910;22;20023;-84
2022/07/03 06:31:41;;;;;;;5.75;4.35;;;;;;;;;;6227111;22;20069;-83
2022/07/03 07:18:44;;;;;;;2.83;1.40;;;;;;;;;;6318273;22;20033;-85
2022/07/03 07:21:19;;;;;;;3.88;1.55;;;;;;;;;;6319579;22;20026;-83
2022/07/03 07:24:32;;;;;;;;;;;;;;;;;;;;;
2022/07/03 07:29:34;;;;;;;3.83;1.00;;;;;;;;;;6320278;22;20033;-83
2022/07/03 07:32:22;;;;;;;1.25;0.93;;;;;;;;;;6315156;22;20019;-86
2022/07/03 07:38:01;;;;;;;4.45;1.25;;;;;;;;;;6289578;22;20054;-87
2022/07/03 07:40:39;;;;;;;4.60;1.08;;;;;;;;;;6286250;22;20023;-84
2022/07/03 07:43:27;;;;;;;3.17;1.35;;;;;;;;;;6317157;22;20180;-83
2022/07/03 07:45:54;;;;;;;9.15;1.30;;;;;;;;;;6314510;22;20020;-83
2022/07/03 07:48:39;;;;;;;4.32;1.30;;;;;;;;;;6288029;22;20026;-85
2022/07/03 07:51:24;;;;;;;2.75;1.70;;;;;;;;;;6288079;22;20046;-87
2022/07/03 07:56:58;;;;;;;5.75;2.67;;;;;;;;;;6298510;22;20046;-85
2022/07/03 07:59:25;;;;;;;3.05;1.95;;;;;;;;;;6288322;22;20027;-85
2022/07/03 08:11:49;;;;;;;2.78;1.73;;;;;;;;;;6250052;23;20024;-85
2022/07/03 08:17:42;;;;;;;6.28;1.73;;;;;;;;;;6143687;23;20040;-86
2022/07/03 08:23:19;;;;;;;;;;;;;;;;;;6189368;23;20024;-86
2022/07/03 08:26:09;;;;;;;6.35;1.80;;;;;;;;;;6166383;23;19959;-83
2022/07/03 08:29:02;;;;;;;3.53;1.48;;;20.80;99.90;;;;;;6162898;23;20553;-85
2022/07/03 08:31:34;;;;;;;1.95;0.85;;;;;;;;;;6189733;23;20023;-85
2022/07/03 08:37:20;;;;;;;3.75;1.38;;;;;;;;;;6223553;23;20024;-87
2022/07/03 08:39:46;;;;;;;4.32;1.20;;;;;;;;;;6226875;23;20043;-87
2022/07/03 08:42:15;;;;;;;5.65;1.60;;;;;;;;;;6173544;23;20016;-85
2022/07/03 08:44:42;;;;;;;2.50;1.50;;;;;;;;;;6253134;23;20020;-85
2022/07/03 08:47:08;;;;;;;2.40;1.40;;;;;;;;;;6199074;23;20044;-87
2022/07/03 08:49:35;;;;;;;3.20;1.15;;;;;;;;;;6201333;23;20437;-85
2022/07/03 08:52:01;;;;;;;4.75;1.20;;;;;;;;;;6250701;23;20040;-84
2022/07/03 08:54:28;;;;;;;2.78;1.30;;;;;;;;;;6251919;23;20024;-83
2022/07/03 08:56:54;;;;;;;5.22;1.63;;;;;;;;;;6252908;23;20031;-87
2022/07/03 08:59:21;;;;;;;3.95;1.52;;;;;;;;;;6250929;23;20016;-87
2022/07/03 09:01:48;;;;;;;8.65;1.38;;;;;;;;;;6253473;23;20076;-85
2022/07/03 09:04:14;;;;;;;1.60;0.88;;;;;;;;;;6241027;23;20077;-85
2022/07/03 09:06:41;;;;;;;2.67;1.20;;;;;;;;;;6201670;23;20020;-86
2022/07/03 09:09:13;;;;;;;3.25;1.58;;;;;;;;;;6198145;23;20020;-85
2022/07/03 09:11:39;;;;;;;2.17;1.25;;;;;;;;;;6200147;23;20103;-84
2022/07/03 09:14:06;;;;;;;3.05;1.35;;;;;;;;;;6248934;23;20036;-86
2022/07/03 09:16:35;;;;;;;4.65;0.90;;;;;;;;;;6225026;23;20118;-84
2022/07/03 09:19:03;;;;;;;4.95;1.02;;;;;;;;;;6221618;23;20016;-79
2022/07/03 09:21:55;;;;;;;3.78;1.00;;;;;;;;;;6247855;23;20027;-79
2022/07/03 09:24:21;;;;;;;1.98;1.10;;;;;;;;;;6241221;23;20095;-84
2022/07/03 09:26:54;;;;;;;3.55;0.98;;;;;;;;;;6248469;23;20507;-82
2022/07/03 09:29:20;;;;;;;1.10;0.70;;;;;;;;;;6251717;23;20602;-82
2022/07/03 09:31:54;;;;;;;2.55;0.80;;;;;;;;;;6250205;23;20503;-82
2022/07/03 09:34:21;;;;;;;2.28;0.77;;;;;;;;;;6205593;23;20016;-82
2022/07/03 09:36:48;;;;;;;2.78;0.80;;;;;;;;;;6248897;23;20126;-84
2022/07/03 09:39:30;;;;;;;1.70;0.88;;;;;;;;;;6250423;23;20016;-84
2022/07/03 09:41:58;;;;;;;1.15;0.73;;;;;;;;;;6224486;23;20028;-83
2022/07/03 09:44:34;;;;;;;4.97;1.00;;;;;;;;;;6249996;23;20017;-82
2022/07/03 09:47:09;;;;;;;2.72;1.00;;;;;;;;;;6249898;23;20019;-79
2022/07/03 09:49:51;;;;;;;1.40;1.02;;;;;;;;;;6248474;23;20024;-81
2022/07/03 09:52:35;;;;;;;1.92;0.80;;;;;;;;;;6250170;23;20020;-81
2022/07/03 09:55:18;;;;;;;3.08;0.80;;;;;;;;;;6249404;23;20024;-83
2022/07/03 09:57:51;;;;;;;0.93;0.70;;;;;;;;;;6249630;23;20035;-80
2022/07/03 10:00:17;;;;;;;1.77;1.05;;;;;;;;;;6224074;23;20084;-83
2022/07/03 10:02:55;;;;;;;4.25;1.00;;;;;;;;;;6248827;23;20012;-83
2022/07/03 10:05:40;;;;;;;2.35;0.80;;;;;;;;;;6253546;23;20023;-86
2022/07/03 10:19:18;;;;;;;3.08;0.50;;;;;;;;;;6314376;22;20014;-86
2022/07/03 10:22:02;;;;;;;2.95;0.95;;;;;;;;;;6283787;22;20031;-90
2022/07/03 10:51:18;;;;;;;3.55;0.85;;;;;;;;;;6275829;22;20110;31
2022/07/03 11:31:46;;;;;;;2.30;1.00;;;;;;;;;;6260486;22;20027;-91
2022/07/03 11:41:24;;;;;;;1.90;0.60;;;;;;;;;;6225794;23;20028;-90
2022/07/03 11:57:21;;;;;;;13.82;1.85;;;;;;;;;;6282388;22;20024;-88
2022/07/03 12:05:52;;;;;;;8.50;2.40;;;;;;;;;;6271159;22;20113;-88
2022/07/03 13:12:53;;;;;;;10.13;2.05;;;;;;;;;;6161070;23;20799;31
2022/07/03 13:15:27;;;;;;;6.82;1.40;;;;;;;;;;6172474;23;20055;-91
2022/07/03 14:58:27;;;;;;;8.32;2.53;;;;;;;;;;6275415;22;20022;-82
2022/07/03 15:01:06;;;;;;;8.43;2.92;;;;;;;;;;6245968;22;20035;-83
2022/07/03 15:03:42;;;;;;;11.88;3.22;;;;;;;;;;6277785;22;20203;-84
2022/07/03 15:06:13;;;;;;;20.15;4.22;;;;;;;;;;6272876;22;20529;-81
2022/07/03 15:08:52;;;;;;;9.90;3.78;;;;;;;;;;6273428;22;20020;-84
2022/07/03 15:15:16;;;;;;;8.88;2.28;;;;;;;;;;6279387;22;20073;-86
2022/07/03 15:17:42;;;;;;;9.02;2.80;;;;;;;;;;6253483;22;20031;-86
2022/07/03 15:20:13;;;;;;;3.72;2.20;;;;;;;;;;6253894;22;20082;-85
2022/07/03 15:25:39;;;;;;;4.13;2.60;;;;;;;;;;6274971;22;20474;-86
2022/07/03 15:28:21;;;;;;;6.72;3.20;;;;;;;;;;6278681;22;20019;-86
2022/07/03 15:37:27;;;;;;;4.35;2.20;;;;;;;;;;6229909;22;20030;-87
2022/07/03 15:39:59;;;;;;;8.10;2.92;;;;;;;;;;6255481;22;20443;-86
2022/07/03 17:00:05;;;;;;;7.22;2.17;;;;;;;;;;6284263;22;20084;-86
2022/07/03 17:44:23;;;;;;;4.80;1.95;;;;;;;;;;6280621;22;20078;-85
2022/07/03 17:46:58;;;;;;;11.07;2.05;;;;;;;;;;6223085;22;20046;-87
2022/07/03 17:52:46;;;;;;;5.85;1.90;;;;;;;;;;6089248;22;4443055;-90
2022/07/03 17:55:12;;;;;;;7.05;2.22;;;;;;;;;;6228016;22;20023;-90
2022/07/03 18:03:46;;;;;;;8.30;2.80;;;;;;;;;;6118496;22;20024;-88
2022/07/03 18:15:26;;;;;;;5.88;3.10;;;;;;;;;;6255496;22;20020;-84
2022/07/03 18:27:46;;;;;;;4.80;3.20;;;;;;;;;;6280203;22;20050;-87
2022/07/03 18:30:18;;;;;;;6.75;3.50;;;;;;;;;;6281787;22;20051;-86
2022/07/03 18:32:44;;;;;;;8.05;3.90;;;;;;;;;;6222868;22;20046;-86
2022/07/03 18:35:11;;;;;;;6.50;3.70;;;;;;;;;;6199372;22;20027;-84
2022/07/03 18:37:58;;;;;;;5.88;2.78;;;;;;;;;;6249497;22;20023;-88
2022/07/03 18:40:55;;;;;;;5.63;2.65;;;;;;;;;;6254621;22;20344;-88
2022/07/03 18:43:46;;;;;;;7.10;3.15;;;;;;;;;;6280554;22;20108;-85
2022/07/03 18:55:14;;;;;;;5.78;2.97;;;;;;;;;;6271758;22;20094;-83
2022/07/03 19:10:46;;;;;;;3.90;2.53;;;;;;;;;;6254627;22;20106;-85
2022/07/03 19:13:14;;;;;;;6.60;3.17;;;;;;;;;;6276484;22;20051;-85
2022/07/03 19:15:43;;;;;;;4.53;2.60;;;;;;;;;;6281488;22;20019;-85
2022/07/03 19:18:15;;;;;;;6.45;2.67;;;;;;;;;;6250931;22;20020;-85
2022/07/03 19:20:54;;;;;;;4.32;2.60;;;;;;;;;;6225524;22;20078;-85
2022/07/03 19:23:23;;;;;;;8.40;2.72;;;;;;;;;;6249117;22;20483;-83
2022/07/03 19:26:08;;;;;;;6.93;2.53;;;;;;;;;;6249842;22;20368;-86
2022/07/03 19:28:43;;;;;;;6.65;2.42;;;;;;;;;;6226866;22;20020;-84
2022/07/03 19:31:20;;;;;;;6.07;2.53;;;;;;;;;;6223780;22;20447;-82
2022/07/03 19:43:49;;;;;;;7.45;2.08;;;;;;;;;;6279336;22;20062;-83
2022/07/03 19:46:41;;;;;;;6.82;2.00;;;;;;;;;;6225644;22;20047;-84
2022/07/03 19:49:14;;;;;;;7.35;1.80;;;;;;;;;;6252561;22;20099;-83
2022/07/03 19:52:14;;;;;;;5.05;2.03;;;;;;;;;;6224540;22;20094;-86
2022/07/03 19:54:49;;;;;;;6.40;2.13;;;;;;;;;;6225300;22;20019;-85
2022/07/03 19:57:21;;;;;;;7.85;2.38;;;;;;;;;;6250299;22;20103;-84
2022/07/03 20:06:52;;;;;;;13.57;2.22;;;;;;;;;;6278159;22;20069;-83
2022/07/03 20:09:25;;;;;;;12.23;2.42;;;;;;;;;;6226837;22;20024;-85
2022/07/03 20:12:00;;;;;;;7.10;2.25;;;;;;;;;;6247562;22;20038;-89
2022/07/03 20:20:38;;;;;;;5.90;2.10;;;17.00;99.90;;;;;;6264564;22;20027;31
2022/07/03 20:23:04;;;;;;;8.98;2.63;;;;;;;;;;6193805;23;20031;-85
2022/07/03 20:26:05;;;;;;;7.32;2.40;;;;;;;;;;6223339;23;20028;-83
2022/07/03 20:31:32;;;;;;;4.03;2.08;;;;;;;;;;6130028;23;20026;-91
2022/07/03 20:37:54;;;;;;;6.15;2.72;;;;;;;;;;6041860;23;20042;-84
2022/07/03 20:43:42;;;;;;;10.07;2.75;;;;;;;;;;6044505;23;20027;-85
2022/07/03 20:49:30;;;;;;;5.97;2.28;;;;;;;;;;6042491;23;20066;-90
2022/07/03 20:51:57;;;;;;;5.43;2.33;;;;;;;;;;6043340;23;20024;-90
2022/07/03 20:54:23;;;;;;;7.15;2.20;;;;;;;;;;6082366;23;20519;-91
2022/07/03 20:56:50;;;;;;;7.43;2.08;;;;;;;;;;6163436;23;20020;-90
2022/07/03 20:59:17;;;;;;;8.43;2.10;;;;;;;;;;6199227;23;20016;-90
2022/07/03 21:01:43;;;;;;;10.02;2.25;;;;;;;;;;6228582;23;20027;-88
2022/07/03 21:04:10;;;;;;;7.53;2.13;;;;;;;;;;6198186;23;20023;-87
2022/07/03 21:06:37;;;;;;;13.07;2.78;;;;;;;;;;6224956;23;20050;-90
2022/07/03 21:09:22;;;;;;;9.43;2.30;;;16.20;99.90;;;;;;6222125;23;20016;-91
2022/07/03 21:11:48;;;;;;;5.93;1.98;;;;;;;;;;6195220;23;20071;-86
2022/07/03 21:14:17;;;;;;;10.40;2.03;;;;;;;;;;6195419;23;20016;-85
2022/07/03 21:19:37;;;;;;;7.20;2.17;;;;;;;;;;6312670;22;20133;-86
2022/07/03 21:22:20;;;;;;;3.60;2.22;;;;;;;;;;6315437;22;20023;-85
2022/07/03 21:25:05;;;;;;;7.93;2.17;;;;;;;;;;6315451;22;20092;-88
2022/07/03 21:34:21;;;;;;;8.77;2.28;;;;;;;;;;6314033;22;20110;-83
2022/07/03 21:36:50;;;;;;;10.55;2.80;;;;;;;;;;6257675;22;20045;-84
2022/07/03 21:39:17;;;;;;;9.95;2.58;;;;;;;;;;6314707;22;20029;-83
2022/07/03 21:45:43;;;;;;;7.10;2.55;;;;;;;;;;6317483;22;20014;-88
2022/07/03 21:48:28;;;;;;;5.18;2.47;;;;;;;;;;6262980;22;20098;-87
2022/07/03 21:50:54;;;;;;;13.40;3.15;;;;;;;;;;6323285;22;20019;-89
2022/07/03 21:53:22;;;;;;;10.07;2.95;;;;;;;;;;6274161;22;20019;-86
2022/07/03 22:08:11;;;;;;;8.55;3.53;;;;;;;;;;6265025;22;20039;-88
2022/07/03 22:11:03;;;;;;;7.38;4.15;;;;;;;;;;6236834;23;20023;-89
2022/07/03 22:13:32;;;;;;;8.57;4.55;;;;;;;;;;6213908;23;20027;-87
2022/07/03 22:15:59;;;;;;;7.70;3.97;;;;;;;;;;6215869;23;20068;-87
2022/07/03 22:20:59;;;;;;;11.95;5.10;;;;;;;;;;6296640;22;20015;-86
2022/07/03 22:23:30;;;;;;;11.88;4.78;;;;;;;;;;6221228;22;20016;-86
2022/07/03 22:26:15;;;;;;;8.52;4.40;;;;;;;;;;6272816;22;20020;-88
2022/07/03 22:29:16;;;;;;;7.05;4.20;;;;;;;;;;6292175;22;20019;-86
2022/07/03 22:32:05;;;;;;;10.35;3.85;;;;;;;;;;6271752;22;20046;-89
2022/07/03 22:34:42;;;;;;;15.88;4.78;;;;;;;;;;6295952;22;20028;-91
2022/07/03 22:41:05;;;;;;;9.35;4.50;;;;;;;;;;6299687;22;20015;-89
2022/07/03 22:43:49;;;;;;;9.93;4.43;;;;;;;;;;6267298;22;20019;-86
2022/07/03 22:46:30;;;;;;;11.60;4.63;;;;;;;;;;6237591;22;20054;-87
2022/07/03 22:49:12;;;;;;;13.10;5.47;;;;;;;;;;6289006;22;20024;-86
2022/07/03 22:51:56;;;;;;;14.05;5.03;;;;;;;;;;6261118;22;20398;-84
2022/07/03 22:54:37;;;;;;;6.38;4.53;;;;;;;;;;6234360;22;20030;-83
2022/07/03 22:57:18;;;;;;;6.90;4.13;;;;;;;;;;6258854;22;20019;-87
2022/07/03 23:03:01;;;;;;;4.60;3.33;;;;;;;;;;6283239;22;20099;-87
2022/07/03 23:05:27;;;;;;;7.30;4.32;;;;;;;;;;6284102;22;20016;-84
2022/07/03 23:08:06;;;;;;;10.02;4.35;;;;;;;;;;6255627;22;20062;-86
2022/07/03 23:10:33;;;;;;;7.90;3.63;;;;;;;;;;6232109;22;20015;-85
2022/07/03 23:13:11;;;;;;;10.57;4.15;;;;;;;;;;6219754;23;20096;-83
2022/07/03 23:15:52;;;;;;;9.07;3.35;;;;;;;;;;6197899;23;20021;-84
2022/07/03 23:18:35;;;;;;;8.15;4.10;;;;;;;;;;6170091;23;20067;-84
2022/07/03 23:21:17;;;;;;;9.27;4.10;;;;;;;;;;6171483;23;20056;-84
2022/07/03 23:23:58;;;;;;;9.55;4.40;;;;;;;;;;6218626;23;20025;-85
2022/07/03 23:29:26;;;;;;;7.65;4.00;;;;;;;;;;6161763;23;20083;-86
2022/07/03 23:32:07;;;;;;;7.65;4.03;;;;;;;;;;6108077;23;20021;-87
2022/07/03 23:34:48;;;;;;;8.13;3.97;;;;;;;;;;6126441;23;20018;-89
2022/07/03 23:37:29;;;;;;;5.55;3.75;;;;;;;;;;6129126;23;20021;-86
2022/07/03 23:40:10;;;;;;;6.72;4.10;;;;;;;;;;6192553;23;20020;-83
2022/07/03 23:42:37;;;;;;;5.93;3.85;;;;;;;;;;6190939;23;20020;-86
2022/07/03 23:45:14;;;;;;;14.25;4.20;;;;;;;;;;6221431;22;20015;-85
2022/07/03 23:47:59;;;;;;;6.50;4.18;;;;;;;;;;6277238;22;20016;-85
2022/07/03 23:50:44;;;;;;;9.13;4.10;;;;;;;;;;6281212;22;20551;-84
2022/07/03 23:53:45;;;;;;;6.72;3.92;;;;;;;;;;6228176;22;20019;-89
2022/07/03 23:56:24;;;;;;;5.63;3.85;;;;;;;;;;6252121;22;20051;-84
2022/07/03 23:59:06;;;;;;;6.50;4.10;;;;;;;;;;6228299;22;20032;-83
